sensor_id;sensor_type;location;lat;lon;timestamp;P1;durP1;ratioP1;P2;durP2;ratioP2
21843;SDS011;11084;52.482;9.108;2022-11-15T00:02:26;9.37;;;5.93;;
21843;SDS011;11084;52.482;9.108;2022-11-15T00:05:11;11.63;;;5.37;;
21843;SDS011;11084;52.482;9.108;2022-11-15T00:07:56;11.33;;;5.80;;
21843;SDS011;11084;52.482;9.108;2022-11-15T00:10:41;12.27;;;5.10;;
21843;SDS011;11084;52.482;9.108;2022-11-15T00:13:26;12.07;;;6.30;;
21843;SDS011;11084;52.482;9.108;2022-11-15T00:16:11;12.27;;;5.50;;
21843;SDS011;11084;52.482;9.108;2022-11-15T00:18:56;9.40;;;5.70;;
21843;SDS011;11084;52.482;9.108;2022-11-15T00:21:43;10.50;;;5.73;;
21843;SDS011;11084;52.482;9.108;2022-11-15T00:24:28;8.40;;;5.23;;
21843;SDS011;11084;52.482;9.108;2022-11-15T00:27:12;10.90;;;5.90;;
21843;SDS011;11084;52.482;9.108;2022-11-15T00:29:57;8.73;;;4.87;;
21843;SDS011;11084;52.482;9.108;2022-11-15T00:32:42;11.53;;;5.73;;
21843;SDS011;11084;52.482;9.108;2022-11-15T00:35:26;11.07;;;5.80;;
21843;SDS011;11084;52.482;9.108;2022-11-15T00:38:12;10.50;;;5.57;;
21843;SDS011;11084;52.482;9.108;2022-11-15T00:40:57;10.03;;;5.10;;
21843;SDS011;11084;52.482;9.108;2022-11-15T00:43:42;9.67;;;5.33;;
21843;SDS011;11084;52.482;9.108;2022-11-15T00:46:28;14.73;;;5.80;;
21843;SDS011;11084;52.482;9.108;2022-11-15T00:49:13;10.17;;;5.57;;
21843;SDS011;11084;52.482;9.108;2022-11-15T00:51:57;7.73;;;5.00;;
21843;SDS011;11084;52.482;9.108;2022-11-15T00:54:42;9.70;;;5.23;;
21843;SDS011;11084;52.482;9.108;2022-11-15T00:57:27;8.87;;;4.80;;
21843;SDS011;11084;52.482;9.108;2022-11-15T01:00:11;10.97;;;5.20;;
21843;SDS011;11084;52.482;9.108;2022-11-15T01:02:57;9.70;;;5.23;;
21843;SDS011;11084;52.482;9.108;2022-11-15T01:05:42;8.67;;;5.47;;
21843;SDS011;11084;52.482;9.108;2022-11-15T01:08:26;9.63;;;4.97;;
21843;SDS011;11084;52.482;9.108;2022-11-15T01:11:11;8.00;;;4.43;;
21843;SDS011;11084;52.482;9.108;2022-11-15T01:13:57;9.20;;;5.20;;
21843;SDS011;11084;52.482;9.108;2022-11-15T01:16:42;6.83;;;4.57;;
21843;SDS011;11084;52.482;9.108;2022-11-15T01:19:28;7.70;;;4.60;;
21843;SDS011;11084;52.482;9.108;2022-11-15T01:22:13;8.37;;;4.73;;
21843;SDS011;11084;52.482;9.108;2022-11-15T01:24:58;6.70;;;4.47;;
21843;SDS011;11084;52.482;9.108;2022-11-15T01:27:43;11.03;;;4.30;;
21843;SDS011;11084;52.482;9.108;2022-11-15T01:30:27;5.57;;;3.60;;
21843;SDS011;11084;52.482;9.108;2022-11-15T01:33:12;12.00;;;4.90;;
21843;SDS011;11084;52.482;9.108;2022-11-15T01:35:57;7.70;;;4.30;;
21843;SDS011;11084;52.482;9.108;2022-11-15T01:38:42;10.37;;;4.43;;
21843;SDS011;11084;52.482;9.108;2022-11-15T01:41:28;5.97;;;4.10;;
21843;SDS011;11084;52.482;9.108;2022-11-15T01:50:14;7.40;;;4.83;;
21843;SDS011;11084;52.482;9.108;2022-11-15T01:53:04;7.30;;;4.37;;
21843;SDS011;11084;52.482;9.108;2022-11-15T01:55:50;10.00;;;4.70;;
21843;SDS011;11084;52.482;9.108;2022-11-15T01:58:36;7.07;;;4.63;;
21843;SDS011;11084;52.482;9.108;2022-11-15T02:01:21;9.03;;;4.30;;
21843;SDS011;11084;52.482;9.108;2022-11-15T02:07:00;6.90;;;4.03;;
21843;SDS011;11084;52.482;9.108;2022-11-15T02:09:47;10.80;;;4.97;;
21843;SDS011;11084;52.482;9.108;2022-11-15T02:12:32;8.43;;;4.57;;
21843;SDS011;11084;52.482;9.108;2022-11-15T02:15:18;10.10;;;4.20;;
21843;SDS011;11084;52.482;9.108;2022-11-15T02:20:51;9.03;;;4.40;;
21843;SDS011;11084;52.482;9.108;2022-11-15T02:27:42;7.53;;;4.70;;
21843;SDS011;11084;52.482;9.108;2022-11-15T02:31:03;7.97;;;4.70;;
21843;SDS011;11084;52.482;9.108;2022-11-15T02:37:46;10.73;;;5.20;;
21843;SDS011;11084;52.482;9.108;2022-11-15T02:44:23;6.10;;;4.00;;
21843;SDS011;11084;52.482;9.108;2022-11-15T02:47:17;11.07;;;4.67;;
21843;SDS011;11084;52.482;9.108;2022-11-15T02:50:08;9.33;;;3.87;;
21843;SDS011;11084;52.482;9.108;2022-11-15T02:52:58;8.27;;;4.63;;
21843;SDS011;11084;52.482;9.108;2022-11-15T02:55:44;6.63;;;4.53;;
21843;SDS011;11084;52.482;9.108;2022-11-15T03:05:25;11.47;;;4.00;;
21843;SDS011;11084;52.482;9.108;2022-11-15T03:12:24;13.13;;;4.50;;
21843;SDS011;11084;52.482;9.108;2022-11-15T03:15:28;5.73;;;4.07;;
21843;SDS011;11084;52.482;9.108;2022-11-15T03:18:21;11.83;;;4.77;;
21843;SDS011;11084;52.482;9.108;2022-11-15T03:21:16;6.53;;;3.83;;
21843;SDS011;11084;52.482;9.108;2022-11-15T03:24:05;12.37;;;4.67;;
21843;SDS011;11084;52.482;9.108;2022-11-15T03:26:53;7.20;;;4.37;;
21843;SDS011;11084;52.482;9.108;2022-11-15T03:29:41;9.60;;;4.57;;
21843;SDS011;11084;52.482;9.108;2022-11-15T03:32:31;10.90;;;4.93;;
21843;SDS011;11084;52.482;9.108;2022-11-15T03:35:22;8.47;;;4.47;;
21843;SDS011;11084;52.482;9.108;2022-11-15T03:38:23;11.63;;;6.10;;
21843;SDS011;11084;52.482;9.108;2022-11-15T03:41:15;7.23;;;5.00;;
21843;SDS011;11084;52.482;9.108;2022-11-15T03:47:34;7.87;;;4.63;;
21843;SDS011;11084;52.482;9.108;2022-11-15T03:50:25;7.67;;;4.77;;
21843;SDS011;11084;52.482;9.108;2022-11-15T03:53:10;9.80;;;5.17;;
21843;SDS011;11084;52.482;9.108;2022-11-15T03:55:56;10.13;;;4.83;;
21843;SDS011;11084;52.482;9.108;2022-11-15T03:58:40;10.33;;;4.97;;
21843;SDS011;11084;52.482;9.108;2022-11-15T04:01:25;6.30;;;4.37;;
21843;SDS011;11084;52.482;9.108;2022-11-15T04:04:11;13.07;;;4.93;;
21843;SDS011;11084;52.482;9.108;2022-11-15T04:06:55;10.47;;;5.50;;
21843;SDS011;11084;52.482;9.108;2022-11-15T04:09:40;11.10;;;5.47;;
21843;SDS011;11084;52.482;9.108;2022-11-15T04:12:43;11.17;;;5.47;;
21843;SDS011;11084;52.482;9.108;2022-11-15T04:15:31;9.63;;;5.30;;
21843;SDS011;11084;52.482;9.108;2022-11-15T04:18:16;11.73;;;5.43;;
21843;SDS011;11084;52.482;9.108;2022-11-15T04:21:00;9.87;;;5.43;;
21843;SDS011;11084;52.482;9.108;2022-11-15T04:24:04;11.30;;;4.90;;
21843;SDS011;11084;52.482;9.108;2022-11-15T04:26:49;10.93;;;4.60;;
21843;SDS011;11084;52.482;9.108;2022-11-15T04:29:33;11.00;;;5.57;;
21843;SDS011;11084;52.482;9.108;2022-11-15T04:32:18;10.60;;;4.83;;
21843;SDS011;11084;52.482;9.108;2022-11-15T04:35:05;9.37;;;5.37;;
21843;SDS011;11084;52.482;9.108;2022-11-15T04:37:50;11.13;;;5.20;;
21843;SDS011;11084;52.482;9.108;2022-11-15T04:40:36;10.80;;;5.07;;
21843;SDS011;11084;52.482;9.108;2022-11-15T04:43:21;7.33;;;4.73;;
21843;SDS011;11084;52.482;9.108;2022-11-15T04:46:06;9.07;;;5.47;;
21843;SDS011;11084;52.482;9.108;2022-11-15T04:48:51;9.07;;;5.30;;
21843;SDS011;11084;52.482;9.108;2022-11-15T04:51:36;12.40;;;4.87;;
21843;SDS011;11084;52.482;9.108;2022-11-15T04:54:21;10.03;;;5.17;;
21843;SDS011;11084;52.482;9.108;2022-11-15T04:57:06;11.40;;;5.23;;
21843;SDS011;11084;52.482;9.108;2022-11-15T04:59:50;10.63;;;5.00;;
21843;SDS011;11084;52.482;9.108;2022-11-15T05:02:36;9.27;;;5.50;;
21843;SDS011;11084;52.482;9.108;2022-11-15T05:05:39;10.47;;;4.93;;
21843;SDS011;11084;52.482;9.108;2022-11-15T05:08:24;6.83;;;4.40;;
21843;SDS011;11084;52.482;9.108;2022-11-15T05:11:09;10.87;;;5.50;;
21843;SDS011;11084;52.482;9.108;2022-11-15T05:13:54;7.93;;;5.03;;
21843;SDS011;11084;52.482;9.108;2022-11-15T05:16:38;15.23;;;4.87;;
21843;SDS011;11084;52.482;9.108;2022-11-15T05:19:23;6.47;;;4.73;;
21843;SDS011;11084;52.482;9.108;2022-11-15T05:22:08;10.60;;;4.53;;
21843;SDS011;11084;52.482;9.108;2022-11-15T05:24:53;11.27;;;5.00;;
21843;SDS011;11084;52.482;9.108;2022-11-15T05:27:37;7.07;;;4.30;;
21843;SDS011;11084;52.482;9.108;2022-11-15T05:30:22;9.77;;;4.43;;
21843;SDS011;11084;52.482;9.108;2022-11-15T05:33:06;10.90;;;4.80;;
21843;SDS011;11084;52.482;9.108;2022-11-15T05:35:54;9.20;;;4.80;;
21843;SDS011;11084;52.482;9.108;2022-11-15T05:38:43;11.00;;;4.47;;
21843;SDS011;11084;52.482;9.108;2022-11-15T05:42:04;7.77;;;4.47;;
21843;SDS011;11084;52.482;9.108;2022-11-15T05:44:55;11.57;;;4.50;;
21843;SDS011;11084;52.482;9.108;2022-11-15T05:47:42;9.67;;;4.80;;
21843;SDS011;11084;52.482;9.108;2022-11-15T05:50:27;9.97;;;4.87;;
21843;SDS011;11084;52.482;9.108;2022-11-15T05:53:12;11.43;;;4.37;;
21843;SDS011;11084;52.482;9.108;2022-11-15T05:55:59;7.97;;;4.50;;
21843;SDS011;11084;52.482;9.108;2022-11-15T05:58:44;6.90;;;3.77;;
21843;SDS011;11084;52.482;9.108;2022-11-15T06:01:28;10.57;;;4.57;;
21843;SDS011;11084;52.482;9.108;2022-11-15T06:04:14;6.37;;;4.40;;
21843;SDS011;11084;52.482;9.108;2022-11-15T06:06:59;6.07;;;4.03;;
21843;SDS011;11084;52.482;9.108;2022-11-15T06:09:43;7.70;;;3.97;;
21843;SDS011;11084;52.482;9.108;2022-11-15T06:12:28;5.87;;;3.80;;
21843;SDS011;11084;52.482;9.108;2022-11-15T06:15:13;5.30;;;3.60;;
21843;SDS011;11084;52.482;9.108;2022-11-15T06:17:58;7.70;;;4.27;;
21843;SDS011;11084;52.482;9.108;2022-11-15T06:20:42;6.73;;;3.77;;
21843;SDS011;11084;52.482;9.108;2022-11-15T06:23:27;7.40;;;3.90;;
21843;SDS011;11084;52.482;9.108;2022-11-15T06:26:15;8.47;;;4.10;;
21843;SDS011;11084;52.482;9.108;2022-11-15T06:29:01;10.80;;;3.80;;
21843;SDS011;11084;52.482;9.108;2022-11-15T06:31:48;9.53;;;3.70;;
21843;SDS011;11084;52.482;9.108;2022-11-15T06:34:32;6.37;;;3.30;;
21843;SDS011;11084;52.482;9.108;2022-11-15T06:37:19;5.43;;;3.30;;
21843;SDS011;11084;52.482;9.108;2022-11-15T06:40:04;4.07;;;3.17;;
21843;SDS011;11084;52.482;9.108;2022-11-15T06:42:54;7.63;;;2.90;;
21843;SDS011;11084;52.482;9.108;2022-11-15T06:45:42;5.50;;;3.67;;
21843;SDS011;11084;52.482;9.108;2022-11-15T06:48:28;9.50;;;3.83;;
21843;SDS011;11084;52.482;9.108;2022-11-15T06:51:13;6.20;;;3.50;;
21843;SDS011;11084;52.482;9.108;2022-11-15T06:53:58;5.50;;;3.30;;
21843;SDS011;11084;52.482;9.108;2022-11-15T06:56:43;5.87;;;3.40;;
21843;SDS011;11084;52.482;9.108;2022-11-15T06:59:27;6.73;;;3.37;;
21843;SDS011;11084;52.482;9.108;2022-11-15T07:02:13;5.67;;;3.67;;
21843;SDS011;11084;52.482;9.108;2022-11-15T07:04:57;6.03;;;3.30;;
21843;SDS011;11084;52.482;9.108;2022-11-15T07:07:50;7.27;;;3.27;;
21843;SDS011;11084;52.482;9.108;2022-11-15T07:10:37;7.90;;;3.60;;
21843;SDS011;11084;52.482;9.108;2022-11-15T07:13:24;6.47;;;3.33;;
21843;SDS011;11084;52.482;9.108;2022-11-15T07:16:10;8.90;;;3.43;;
21843;SDS011;11084;52.482;9.108;2022-11-15T07:18:54;4.33;;;3.23;;
21843;SDS011;11084;52.482;9.108;2022-11-15T07:21:39;7.07;;;3.30;;
21843;SDS011;11084;52.482;9.108;2022-11-15T07:24:24;6.47;;;3.10;;
21843;SDS011;11084;52.482;9.108;2022-11-15T07:27:08;4.83;;;3.17;;
21843;SDS011;11084;52.482;9.108;2022-11-15T07:29:53;4.77;;;3.03;;
21843;SDS011;11084;52.482;9.108;2022-11-15T07:32:37;4.87;;;3.27;;
21843;SDS011;11084;52.482;9.108;2022-11-15T07:35:23;6.87;;;3.07;;
21843;SDS011;11084;52.482;9.108;2022-11-15T07:38:08;4.80;;;3.23;;
21843;SDS011;11084;52.482;9.108;2022-11-15T07:40:58;5.13;;;3.47;;
21843;SDS011;11084;52.482;9.108;2022-11-15T07:43:44;5.93;;;3.37;;
21843;SDS011;11084;52.482;9.108;2022-11-15T07:46:29;5.33;;;2.93;;
21843;SDS011;11084;52.482;9.108;2022-11-15T07:49:13;4.07;;;2.90;;
21843;SDS011;11084;52.482;9.108;2022-11-15T07:51:58;7.30;;;3.50;;
21843;SDS011;11084;52.482;9.108;2022-11-15T07:54:43;6.37;;;2.97;;
21843;SDS011;11084;52.482;9.108;2022-11-15T07:57:28;6.13;;;2.87;;
21843;SDS011;11084;52.482;9.108;2022-11-15T08:00:13;6.30;;;3.17;;
21843;SDS011;11084;52.482;9.108;2022-11-15T08:03:05;7.03;;;2.70;;
21843;SDS011;11084;52.482;9.108;2022-11-15T08:05:58;4.67;;;2.60;;
21843;SDS011;11084;52.482;9.108;2022-11-15T08:08:43;4.27;;;2.77;;
21843;SDS011;11084;52.482;9.108;2022-11-15T08:11:27;3.43;;;2.63;;
21843;SDS011;11084;52.482;9.108;2022-11-15T08:14:12;6.63;;;2.83;;
21843;SDS011;11084;52.482;9.108;2022-11-15T08:16:57;10.33;;;2.77;;
21843;SDS011;11084;52.482;9.108;2022-11-15T08:19:41;7.13;;;2.63;;
21843;SDS011;11084;52.482;9.108;2022-11-15T08:22:26;3.60;;;2.27;;
21843;SDS011;11084;52.482;9.108;2022-11-15T08:25:10;3.17;;;2.43;;
21843;SDS011;11084;52.482;9.108;2022-11-15T08:27:56;3.07;;;2.23;;
21843;SDS011;11084;52.482;9.108;2022-11-15T08:30:45;4.13;;;2.40;;
21843;SDS011;11084;52.482;9.108;2022-11-15T08:33:30;4.60;;;2.43;;
21843;SDS011;11084;52.482;9.108;2022-11-15T08:36:16;3.27;;;2.33;;
21843;SDS011;11084;52.482;9.108;2022-11-15T08:39:01;4.60;;;2.97;;
21843;SDS011;11084;52.482;9.108;2022-11-15T08:41:46;7.80;;;2.20;;
21843;SDS011;11084;52.482;9.108;2022-11-15T08:44:30;3.07;;;1.97;;
21843;SDS011;11084;52.482;9.108;2022-11-15T08:47:15;9.83;;;2.70;;
21843;SDS011;11084;52.482;9.108;2022-11-15T08:50:01;2.77;;;2.30;;
21843;SDS011;11084;52.482;9.108;2022-11-15T08:52:46;3.73;;;2.00;;
21843;SDS011;11084;52.482;9.108;2022-11-15T08:55:31;4.43;;;2.10;;
21843;SDS011;11084;52.482;9.108;2022-11-15T08:58:16;4.23;;;2.27;;
21843;SDS011;11084;52.482;9.108;2022-11-15T09:01:01;2.57;;;1.80;;
21843;SDS011;11084;52.482;9.108;2022-11-15T09:03:49;4.70;;;2.03;;
21843;SDS011;11084;52.482;9.108;2022-11-15T09:06:33;3.00;;;2.33;;
21843;SDS011;11084;52.482;9.108;2022-11-15T09:09:18;3.40;;;1.77;;
21843;SDS011;11084;52.482;9.108;2022-11-15T09:12:04;4.03;;;2.30;;
21843;SDS011;11084;52.482;9.108;2022-11-15T09:14:49;3.93;;;2.40;;
21843;SDS011;11084;52.482;9.108;2022-11-15T09:17:34;4.07;;;2.00;;
21843;SDS011;11084;52.482;9.108;2022-11-15T09:20:19;3.00;;;2.00;;
21843;SDS011;11084;52.482;9.108;2022-11-15T09:23:05;3.40;;;1.90;;
21843;SDS011;11084;52.482;9.108;2022-11-15T09:25:49;6.30;;;2.23;;
21843;SDS011;11084;52.482;9.108;2022-11-15T09:28:35;2.83;;;1.83;;
21843;SDS011;11084;52.482;9.108;2022-11-15T09:31:20;5.23;;;2.07;;
21843;SDS011;11084;52.482;9.108;2022-11-15T09:34:04;3.23;;;1.90;;
21843;SDS011;11084;52.482;9.108;2022-11-15T09:36:49;3.90;;;2.27;;
21843;SDS011;11084;52.482;9.108;2022-11-15T09:39:34;6.00;;;2.30;;
21843;SDS011;11084;52.482;9.108;2022-11-15T09:45:11;2.33;;;1.97;;
21843;SDS011;11084;52.482;9.108;2022-11-15T09:51:21;5.20;;;1.87;;
21843;SDS011;11084;52.482;9.108;2022-11-15T09:53:57;4.03;;;1.77;;
21843;SDS011;11084;52.482;9.108;2022-11-15T09:56:30;4.30;;;2.20;;
21843;SDS011;11084;52.482;9.108;2022-11-15T09:59:04;5.80;;;2.03;;
21843;SDS011;11084;52.482;9.108;2022-11-15T10:02:04;3.90;;;2.20;;
21843;SDS011;11084;52.482;9.108;2022-11-15T10:04:57;5.20;;;2.37;;
21843;SDS011;11084;52.482;9.108;2022-11-15T10:12:55;4.47;;;1.83;;
21843;SDS011;11084;52.482;9.108;2022-11-15T10:15:21;2.27;;;1.60;;
21843;SDS011;11084;52.482;9.108;2022-11-15T10:17:57;2.93;;;1.77;;
21843;SDS011;11084;52.482;9.108;2022-11-15T10:23:41;3.37;;;1.70;;
21843;SDS011;11084;52.482;9.108;2022-11-15T10:26:08;1.57;;;1.40;;
21843;SDS011;11084;52.482;9.108;2022-11-15T10:28:38;5.50;;;1.83;;
21843;SDS011;11084;52.482;9.108;2022-11-15T10:31:10;3.23;;;2.00;;
21843;SDS011;11084;52.482;9.108;2022-11-15T10:34:26;5.00;;;1.70;;
21843;SDS011;11084;52.482;9.108;2022-11-15T10:36:57;2.10;;;1.50;;
21843;SDS011;11084;52.482;9.108;2022-11-15T10:39:25;2.00;;;1.50;;
21843;SDS011;11084;52.482;9.108;2022-11-15T10:41:52;1.83;;;1.30;;
21843;SDS011;11084;52.482;9.108;2022-11-15T10:49:24;2.93;;;1.60;;
21843;SDS011;11084;52.482;9.108;2022-11-15T10:51:56;1.10;;;1.00;;
21843;SDS011;11084;52.482;9.108;2022-11-15T10:54:48;3.53;;;1.30;;
21843;SDS011;11084;52.482;9.108;2022-11-15T10:57:37;3.67;;;1.30;;
21843;SDS011;11084;52.482;9.108;2022-11-15T11:02:59;2.00;;;1.30;;
21843;SDS011;11084;52.482;9.108;2022-11-15T11:05:35;3.70;;;1.40;;
21843;SDS011;11084;52.482;9.108;2022-11-15T11:10:32;2.67;;;1.13;;
21843;SDS011;11084;52.482;9.108;2022-11-15T11:13:12;2.60;;;1.50;;
21843;SDS011;11084;52.482;9.108;2022-11-15T11:16:14;2.60;;;1.47;;
21843;SDS011;11084;52.482;9.108;2022-11-15T11:22:01;1.43;;;1.20;;
21843;SDS011;11084;52.482;9.108;2022-11-15T11:27:59;1.67;;;1.23;;
21843;SDS011;11084;52.482;9.108;2022-11-15T11:33:34;2.67;;;1.40;;
21843;SDS011;11084;52.482;9.108;2022-11-15T11:36:38;1.00;;;0.80;;
21843;SDS011;11084;52.482;9.108;2022-11-15T11:39:30;0.90;;;0.80;;
21843;SDS011;11084;52.482;9.108;2022-11-15T11:42:43;1.03;;;0.90;;
21843;SDS011;11084;52.482;9.108;2022-11-15T11:48:17;3.63;;;0.90;;
21843;SDS011;11084;52.482;9.108;2022-11-15T11:51:28;1.00;;;0.97;;
21843;SDS011;11084;52.482;9.108;2022-11-15T11:56:50;1.90;;;1.10;;
21843;SDS011;11084;52.482;9.108;2022-11-15T11:59:22;1.60;;;1.10;;
21843;SDS011;11084;52.482;9.108;2022-11-15T12:02:48;0.80;;;0.80;;
21843;SDS011;11084;52.482;9.108;2022-11-15T12:05:11;2.87;;;1.20;;
21843;SDS011;11084;52.482;9.108;2022-11-15T12:11:22;2.27;;;1.20;;
21843;SDS011;11084;52.482;9.108;2022-11-15T12:14:19;1.17;;;0.80;;
21843;SDS011;11084;52.482;9.108;2022-11-15T12:16:56;7.00;;;1.37;;
21843;SDS011;11084;52.482;9.108;2022-11-15T12:19:24;1.23;;;1.13;;
21843;SDS011;11084;52.482;9.108;2022-11-15T12:27:40;1.47;;;1.10;;
21843;SDS011;11084;52.482;9.108;2022-11-15T12:30:14;1.00;;;1.00;;
21843;SDS011;11084;52.482;9.108;2022-11-15T12:32:55;3.30;;;1.30;;
21843;SDS011;11084;52.482;9.108;2022-11-15T12:35:26;3.73;;;1.33;;
21843;SDS011;11084;52.482;9.108;2022-11-15T12:38:00;1.20;;;1.10;;
21843;SDS011;11084;52.482;9.108;2022-11-15T12:40:27;3.77;;;1.30;;
21843;SDS011;11084;52.482;9.108;2022-11-15T12:45:35;1.10;;;1.00;;
21843;SDS011;11084;52.482;9.108;2022-11-15T12:56:37;2.67;;;1.20;;
21843;SDS011;11084;52.482;9.108;2022-11-15T12:58:59;1.10;;;1.00;;
21843;SDS011;11084;52.482;9.108;2022-11-15T13:06:48;5.67;;;1.00;;
21843;SDS011;11084;52.482;9.108;2022-11-15T13:09:53;1.53;;;1.10;;
21843;SDS011;11084;52.482;9.108;2022-11-15T13:14:59;3.30;;;1.23;;
21843;SDS011;11084;52.482;9.108;2022-11-15T13:17:50;0.73;;;0.73;;
21843;SDS011;11084;52.482;9.108;2022-11-15T13:20:20;1.67;;;1.20;;
21843;SDS011;11084;52.482;9.108;2022-11-15T13:22:52;1.73;;;1.30;;
21843;SDS011;11084;52.482;9.108;2022-11-15T13:28:02;7.03;;;1.30;;
21843;SDS011;11084;52.482;9.108;2022-11-15T13:31:02;2.80;;;1.43;;
21843;SDS011;11084;52.482;9.108;2022-11-15T13:33:44;1.90;;;1.10;;
21843;SDS011;11084;52.482;9.108;2022-11-15T13:36:15;1.93;;;1.40;;
21843;SDS011;11084;52.482;9.108;2022-11-15T13:38:55;6.23;;;1.27;;
21843;SDS011;11084;52.482;9.108;2022-11-15T13:41:31;2.40;;;1.47;;
21843;SDS011;11084;52.482;9.108;2022-11-15T13:44:00;1.27;;;1.00;;
21843;SDS011;11084;52.482;9.108;2022-11-15T13:46:29;4.17;;;1.20;;
21843;SDS011;11084;52.482;9.108;2022-11-15T13:48:59;2.17;;;1.30;;
21843;SDS011;11084;52.482;9.108;2022-11-15T13:54:24;3.07;;;1.07;;
21843;SDS011;11084;52.482;9.108;2022-11-15T13:59:27;5.63;;;1.20;;
21843;SDS011;11084;52.482;9.108;2022-11-15T14:01:58;5.60;;;1.30;;
21843;SDS011;11084;52.482;9.108;2022-11-15T14:04:29;5.90;;;1.47;;
21843;SDS011;11084;52.482;9.108;2022-11-15T14:06:59;1.47;;;1.30;;
21843;SDS011;11084;52.482;9.108;2022-11-15T14:15:02;6.13;;;1.37;;
21843;SDS011;11084;52.482;9.108;2022-11-15T14:17:59;3.57;;;1.67;;
21843;SDS011;11084;52.482;9.108;2022-11-15T14:20:29;8.53;;;1.33;;
21843;SDS011;11084;52.482;9.108;2022-11-15T14:23:04;6.10;;;1.60;;
21843;SDS011;11084;52.482;9.108;2022-11-15T14:25:52;5.17;;;1.80;;
21843;SDS011;11084;52.482;9.108;2022-11-15T14:30:49;3.50;;;1.90;;
21843;SDS011;11084;52.482;9.108;2022-11-15T14:35:59;5.63;;;1.43;;
21843;SDS011;11084;52.482;9.108;2022-11-15T14:38:46;2.17;;;1.40;;
21843;SDS011;11084;52.482;9.108;2022-11-15T14:41:25;3.83;;;2.10;;
21843;SDS011;11084;52.482;9.108;2022-11-15T14:43:57;3.90;;;1.93;;
21843;SDS011;11084;52.482;9.108;2022-11-15T14:46:23;8.57;;;1.40;;
21843;SDS011;11084;52.482;9.108;2022-11-15T14:48:49;2.20;;;1.60;;
21843;SDS011;11084;52.482;9.108;2022-11-15T14:51:16;2.67;;;1.83;;
21843;SDS011;11084;52.482;9.108;2022-11-15T14:53:43;3.77;;;1.77;;
21843;SDS011;11084;52.482;9.108;2022-11-15T14:56:10;8.80;;;2.03;;
21843;SDS011;11084;52.482;9.108;2022-11-15T14:58:37;2.57;;;1.77;;
21843;SDS011;11084;52.482;9.108;2022-11-15T15:01:16;1.93;;;1.60;;
21843;SDS011;11084;52.482;9.108;2022-11-15T15:03:46;2.13;;;1.50;;
21843;SDS011;11084;52.482;9.108;2022-11-15T15:06:12;2.37;;;1.87;;
21843;SDS011;11084;52.482;9.108;2022-11-15T15:08:39;4.27;;;1.50;;
21843;SDS011;11084;52.482;9.108;2022-11-15T15:11:16;2.87;;;1.23;;
21843;SDS011;11084;52.482;9.108;2022-11-15T15:13:51;3.03;;;1.70;;
21843;SDS011;11084;52.482;9.108;2022-11-15T15:16:18;4.20;;;2.33;;
21843;SDS011;11084;52.482;9.108;2022-11-15T15:18:44;1.80;;;1.37;;
21843;SDS011;11084;52.482;9.108;2022-11-15T15:23:53;4.17;;;1.67;;
21843;SDS011;11084;52.482;9.108;2022-11-15T15:26:19;7.87;;;2.00;;
21843;SDS011;11084;52.482;9.108;2022-11-15T15:28:46;4.57;;;1.70;;
21843;SDS011;11084;52.482;9.108;2022-11-15T15:31:14;2.60;;;1.60;;
21843;SDS011;11084;52.482;9.108;2022-11-15T15:33:40;6.97;;;1.60;;
21843;SDS011;11084;52.482;9.108;2022-11-15T15:36:10;8.03;;;1.80;;
21843;SDS011;11084;52.482;9.108;2022-11-15T15:38:43;8.30;;;2.23;;
21843;SDS011;11084;52.482;9.108;2022-11-15T15:41:12;2.00;;;1.60;;
21843;SDS011;11084;52.482;9.108;2022-11-15T15:43:40;2.10;;;1.40;;
21843;SDS011;11084;52.482;9.108;2022-11-15T15:46:10;1.63;;;1.50;;
21843;SDS011;11084;52.482;9.108;2022-11-15T15:48:41;2.13;;;1.17;;
21843;SDS011;11084;52.482;9.108;2022-11-15T15:51:07;7.97;;;1.33;;
21843;SDS011;11084;52.482;9.108;2022-11-15T15:53:33;3.07;;;2.20;;
21843;SDS011;11084;52.482;9.108;2022-11-15T15:56:00;6.23;;;1.97;;
21843;SDS011;11084;52.482;9.108;2022-11-15T15:58:26;2.57;;;1.80;;
21843;SDS011;11084;52.482;9.108;2022-11-15T16:00:52;3.20;;;1.90;;
21843;SDS011;11084;52.482;9.108;2022-11-15T16:03:18;4.70;;;1.83;;
21843;SDS011;11084;52.482;9.108;2022-11-15T16:05:44;5.20;;;1.97;;
21843;SDS011;11084;52.482;9.108;2022-11-15T16:08:18;2.60;;;1.80;;
21843;SDS011;11084;52.482;9.108;2022-11-15T16:10:47;1.83;;;1.43;;
21843;SDS011;11084;52.482;9.108;2022-11-15T16:13:14;4.20;;;1.80;;
21843;SDS011;11084;52.482;9.108;2022-11-15T16:15:40;3.90;;;1.93;;
21843;SDS011;11084;52.482;9.108;2022-11-15T16:18:08;5.47;;;2.33;;
21843;SDS011;11084;52.482;9.108;2022-11-15T16:20:46;5.93;;;2.37;;
21843;SDS011;11084;52.482;9.108;2022-11-15T16:23:21;8.53;;;2.10;;
21843;SDS011;11084;52.482;9.108;2022-11-15T16:30:58;5.57;;;1.77;;
21843;SDS011;11084;52.482;9.108;2022-11-15T16:33:25;4.63;;;2.00;;
21843;SDS011;11084;52.482;9.108;2022-11-15T16:35:51;5.70;;;2.03;;
21843;SDS011;11084;52.482;9.108;2022-11-15T16:38:18;2.43;;;1.70;;
21843;SDS011;11084;52.482;9.108;2022-11-15T16:40:44;3.60;;;2.00;;
21843;SDS011;11084;52.482;9.108;2022-11-15T16:43:10;6.00;;;2.20;;
21843;SDS011;11084;52.482;9.108;2022-11-15T16:45:36;4.80;;;1.90;;
21843;SDS011;11084;52.482;9.108;2022-11-15T16:48:02;2.70;;;1.70;;
21843;SDS011;11084;52.482;9.108;2022-11-15T16:50:33;23.73;;;2.80;;
21843;SDS011;11084;52.482;9.108;2022-11-15T16:53:05;5.57;;;2.27;;
21843;SDS011;11084;52.482;9.108;2022-11-15T16:55:34;9.23;;;2.17;;
21843;SDS011;11084;52.482;9.108;2022-11-15T16:58:00;9.07;;;2.37;;
21843;SDS011;11084;52.482;9.108;2022-11-15T17:00:26;2.60;;;1.93;;
21843;SDS011;11084;52.482;9.108;2022-11-15T17:02:53;4.07;;;2.17;;
21843;SDS011;11084;52.482;9.108;2022-11-15T17:05:21;3.20;;;2.17;;
21843;SDS011;11084;52.482;9.108;2022-11-15T17:07:49;9.10;;;2.40;;
21843;SDS011;11084;52.482;9.108;2022-11-15T17:10:18;4.37;;;2.00;;
21843;SDS011;11084;52.482;9.108;2022-11-15T17:12:46;3.30;;;1.93;;
21843;SDS011;11084;52.482;9.108;2022-11-15T17:15:15;2.80;;;1.80;;
21843;SDS011;11084;52.482;9.108;2022-11-15T17:17:42;2.00;;;1.80;;
21843;SDS011;11084;52.482;9.108;2022-11-15T17:20:13;3.83;;;2.20;;
21843;SDS011;11084;52.482;9.108;2022-11-15T17:22:41;5.90;;;2.30;;
21843;SDS011;11084;52.482;9.108;2022-11-15T17:25:08;3.80;;;1.83;;
21843;SDS011;11084;52.482;9.108;2022-11-15T17:27:35;3.57;;;2.40;;
21843;SDS011;11084;52.482;9.108;2022-11-15T17:30:01;4.33;;;2.53;;
21843;SDS011;11084;52.482;9.108;2022-11-15T17:32:28;4.83;;;2.20;;
21843;SDS011;11084;52.482;9.108;2022-11-15T17:34:54;4.33;;;2.60;;
21843;SDS011;11084;52.482;9.108;2022-11-15T17:37:20;7.90;;;3.00;;
21843;SDS011;11084;52.482;9.108;2022-11-15T17:39:46;4.53;;;2.33;;
21843;SDS011;11084;52.482;9.108;2022-11-15T17:42:13;3.63;;;2.50;;
21843;SDS011;11084;52.482;9.108;2022-11-15T17:44:39;4.33;;;2.33;;
21843;SDS011;11084;52.482;9.108;2022-11-15T17:47:04;2.90;;;2.33;;
21843;SDS011;11084;52.482;9.108;2022-11-15T17:49:31;4.33;;;2.47;;
21843;SDS011;11084;52.482;9.108;2022-11-15T17:51:59;3.23;;;2.23;;
21843;SDS011;11084;52.482;9.108;2022-11-15T17:54:25;3.17;;;2.00;;
21843;SDS011;11084;52.482;9.108;2022-11-15T17:56:51;3.37;;;2.27;;
21843;SDS011;11084;52.482;9.108;2022-11-15T17:59:17;2.73;;;1.90;;
21843;SDS011;11084;52.482;9.108;2022-11-15T18:01:44;4.90;;;2.20;;
21843;SDS011;11084;52.482;9.108;2022-11-15T18:04:10;5.83;;;2.63;;
21843;SDS011;11084;52.482;9.108;2022-11-15T18:06:39;4.00;;;2.47;;
21843;SDS011;11084;52.482;9.108;2022-11-15T18:09:05;6.53;;;2.63;;
21843;SDS011;11084;52.482;9.108;2022-11-15T18:11:39;5.67;;;2.83;;
21843;SDS011;11084;52.482;9.108;2022-11-15T18:14:08;3.40;;;2.60;;
21843;SDS011;11084;52.482;9.108;2022-11-15T18:16:39;5.33;;;2.50;;
21843;SDS011;11084;52.482;9.108;2022-11-15T18:19:05;8.73;;;2.60;;